Basin, Montana
Current Conditions -  °F | °C
As of 6:53 PM on Wednesday 26 Nov 2014 (Local Time) from KBTM Reporting Station
Clear Clear  
Wind Chill:   Ceiling: Unl
Heat Index:   Visibility: 10mi
Dew Point: -2°   Wind: 9mph
Humidity: 65%   Direction: 350°N
Pressure: 30.13"   Gusts: NA
Location:  46.27°N, 112.26°W
Report Text: KBTM 270153Z AUTO 35008KT 10SM CLR 04/M02 A3013 RMK AO2 SLP221 T00441017
Loading
Personal Weather Stations






























Interactive Weather Map New forecast layout! Learn more

10-Day Weather Forecast

Advertisements
Track Severe Weather on mobile